Time;durP1;ratioP1;P1;durP2;ratioP2;P2;SDS_P1;SDS_P2;PMS_P1;PMS_P2;Temp;Humidity;BMP_temperature;BMP_pressure;BME280_temperature;BME280_humidity;BME280_pressure;Samples;Min_cycle;Max_cycle;Signal;HPM_P1;HPM_P2
2022/01/31 00:00:53;;;;;;;9.27;3.72;;;2.70;99.90;;;;;;5013185;28;20024;-78
2022/01/31 00:03:19;;;;;;;11.73;3.75;;;2.70;99.90;;;;;;5018906;28;20093;-76
2022/01/31 00:05:44;;;;;;;7.38;3.00;;;2.80;99.90;;;;;;5016412;28;20462;-76
2022/01/31 00:08:10;;;;;;;13.85;4.78;;;2.70;99.90;;;;;;5013042;28;20379;-77
2022/01/31 00:10:36;;;;;;;16.23;3.92;;;2.70;99.90;;;;;;5014175;28;20486;-77
2022/01/31 00:13:06;;;;;;;13.15;3.95;;;2.80;99.90;;;;;;5014788;28;20394;-76
2022/01/31 00:15:39;;;;;;;12.50;4.47;;;2.80;99.90;;;;;;5014755;28;20049;-77
2022/01/31 00:18:04;;;;;;;15.18;3.88;;;2.80;99.90;;;;;;5020280;28;20167;-76
2022/01/31 00:20:30;;;;;;;9.18;3.78;;;2.90;99.90;;;;;;5016163;28;20432;-76
2022/01/31 00:22:56;;;;;;;14.50;5.82;;;2.80;99.90;;;;;;5014591;28;20040;-77
2022/01/31 00:25:21;;;;;;;13.90;3.92;;;2.90;99.90;;;;;;5014217;28;20056;-77
2022/01/31 00:27:47;;;;;;;8.55;3.90;;;2.90;99.90;;;;;;5014136;28;20081;-76
2022/01/31 00:30:13;;;;;;;12.40;4.63;;;3.00;99.90;;;;;;5012981;28;20496;-78
2022/01/31 00:32:39;;;;;;;13.32;4.65;;;3.00;99.90;;;;;;5018487;28;20018;-77
2022/01/31 00:35:05;;;;;;;9.68;3.22;;;3.00;99.90;;;;;;5038313;28;20057;-77
2022/01/31 00:37:31;;;;;;;8.27;4.40;;;3.00;99.90;;;;;;5038978;28;20104;-77
2022/01/31 00:39:57;;;;;;;9.70;3.80;;;3.10;99.90;;;;;;5040478;28;20017;-77
2022/01/31 00:42:24;;;;;;;10.02;3.90;;;3.10;99.90;;;;;;5029782;28;20127;-76
2022/01/31 00:45:10;;;;;;;6.53;4.35;;;3.10;99.90;;;;;;5021103;28;20149;-77
2022/01/31 00:47:39;;;;;;;15.85;4.63;;;3.10;99.90;;;;;;5017335;28;20058;-77
2022/01/31 00:52:32;;;;;;;13.82;4.22;;;3.00;99.90;;;;;;5016968;28;20022;-77
2022/01/31 00:54:57;;;;;;;11.40;4.15;;;3.10;99.90;;;;;;5024384;28;20029;-78
2022/01/31 00:57:23;;;;;;;18.65;4.20;;;3.10;99.90;;;;;;5029411;28;20089;-76
2022/01/31 00:59:51;;;;;;;10.25;3.92;;;3.20;99.90;;;;;;5030033;28;20030;-76
2022/01/31 01:02:18;;;;;;;16.38;5.28;;;3.20;99.90;;;;;;5031034;28;20034;-76
2022/01/31 01:04:43;;;;;;;10.65;3.65;;;3.30;99.90;;;;;;5029442;28;20085;-76
2022/01/31 01:07:09;;;;;;;12.55;3.75;;;3.40;99.90;;;;;;5028802;28;20397;-77
2022/01/31 01:09:35;;;;;;;8.77;4.03;;;3.40;99.90;;;;;;5025659;28;20030;-77
2022/01/31 01:12:00;;;;;;;10.80;3.70;;;3.40;99.90;;;;;;5025815;28;20022;-76
2022/01/31 01:14:26;;;;;;;15.40;4.68;;;3.50;99.90;;;;;;5018399;28;20076;-76
2022/01/31 01:16:52;;;;;;;12.45;3.35;;;3.50;99.90;;;;;;5018201;28;20057;-76
2022/01/31 01:19:17;;;;;;;8.63;4.10;;;3.50;99.90;;;;;;5018797;28;20029;-77
2022/01/31 01:21:43;;;;;;;11.15;4.38;;;3.40;99.90;;;;;;5022693;28;20087;-77
2022/01/31 01:24:08;;;;;;;16.40;4.72;;;3.40;99.90;;;;;;5021453;28;20026;-77
2022/01/31 01:26:34;;;;;;;12.80;3.78;;;3.40;99.90;;;;;;5023100;28;20030;-77
2022/01/31 01:29:00;;;;;;;12.88;4.03;;;3.50;99.90;;;;;;5022463;28;20018;-77
2022/01/31 01:31:26;;;;;;;6.68;3.25;;;3.60;99.90;;;;;;5020584;28;20034;-76
2022/01/31 01:33:53;;;;;;;12.45;3.45;;;3.50;99.90;;;;;;5017257;28;20024;-76
2022/01/31 01:36:20;;;;;;;12.13;3.88;;;3.50;99.90;;;;;;5017051;28;20022;-76
2022/01/31 01:38:46;;;;;;;11.70;4.07;;;3.40;99.90;;;;;;5016579;28;20021;-77
2022/01/31 01:41:11;;;;;;;11.73;3.67;;;3.50;99.90;;;;;;5015914;28;20178;-77
2022/01/31 01:43:38;;;;;;;11.18;4.38;;;3.50;99.90;;;;;;5016075;28;20387;-76
2022/01/31 01:46:04;;;;;;;16.90;4.80;;;3.60;99.90;;;;;;5013838;28;20032;-76
2022/01/31 01:48:30;;;;;;;13.82;4.35;;;3.70;99.90;;;;;;5016097;28;20030;-76
2022/01/31 01:50:56;;;;;;;14.93;3.92;;;3.60;99.90;;;;;;5015458;28;20032;-76
2022/01/31 01:53:24;;;;;;;14.27;5.20;;;3.60;99.90;;;;;;5015246;28;20018;-76
2022/01/31 01:55:52;;;;;;;11.57;3.53;;;3.60;99.90;;;;;;5014102;28;20113;-76
2022/01/31 01:58:22;;;;;;;11.98;3.63;;;3.70;99.90;;;;;;5015546;28;20454;-77
2022/01/31 02:00:58;;;;;;;16.88;5.15;;;3.70;99.90;;;;;;5022489;28;20026;-77
2022/01/31 02:03:25;;;;;;;6.93;4.45;;;3.70;99.90;;;;;;5015215;28;20569;-76
2022/01/31 02:05:51;;;;;;;11.25;3.88;;;3.60;99.90;;;;;;5015061;28;20478;-76
2022/01/31 02:08:19;;;;;;;16.38;4.15;;;3.60;99.90;;;;;;5027546;28;20029;-76
2022/01/31 02:10:45;;;;;;;10.45;4.63;;;3.60;99.90;;;;;;5023721;28;20042;-76
2022/01/31 02:13:12;;;;;;;16.13;4.70;;;3.60;99.90;;;;;;5021686;28;20030;-76
2022/01/31 02:15:40;;;;;;;9.32;3.83;;;3.50;99.90;;;;;;5016224;28;20022;-76
2022/01/31 02:18:06;;;;;;;10.45;3.50;;;3.50;99.90;;;;;;5016758;28;20030;-77
2022/01/31 02:20:37;;;;;;;16.73;4.43;;;3.50;99.90;;;;;;5016156;28;20052;-76
2022/01/31 02:23:04;;;;;;;;;;;3.60;99.90;;;;;;5016450;28;20478;-77
2022/01/31 02:25:30;;;;;;;13.65;3.63;;;3.50;99.90;;;;;;5015119;28;19905;-76
2022/01/31 02:27:55;;;;;;;9.15;3.60;;;3.40;99.90;;;;;;5014702;28;20121;-77
2022/01/31 02:30:21;;;;;;;10.90;4.90;;;3.50;99.90;;;;;;5015365;28;20121;-76
2022/01/31 02:32:47;;;;;;;13.25;4.53;;;3.60;99.90;;;;;;5014838;28;20029;-77
2022/01/31 02:35:13;;;;;;;10.15;3.85;;;3.50;99.90;;;;;;5015673;28;20030;-76
2022/01/31 02:37:39;;;;;;;10.98;3.90;;;3.40;99.90;;;;;;5015091;28;20026;-76
2022/01/31 02:40:06;;;;;;;11.15;4.18;;;3.50;99.90;;;;;;5015231;28;20026;-76
2022/01/31 02:42:31;;;;;;;7.95;3.65;;;3.50;99.90;;;;;;5015060;28;20492;-77
2022/01/31 02:44:57;;;;;;;13.05;3.85;;;3.50;99.90;;;;;;5013678;28;20103;-77
2022/01/31 02:47:26;;;;;;;12.38;3.58;;;3.50;99.90;;;;;;5014585;28;20053;-76
2022/01/31 02:49:59;;;;;;;13.98;4.03;;;3.70;99.90;;;;;;5012912;28;20022;-76
2022/01/31 02:52:27;;;;;;;11.10;3.95;;;3.70;99.90;;;;;;5014548;28;20018;-76
2022/01/31 02:54:53;;;;;;;8.63;3.45;;;3.70;99.90;;;;;;5013579;28;20026;-76
2022/01/31 02:57:18;;;;;;;12.95;4.15;;;3.70;99.90;;;;;;5013413;28;20036;-76
2022/01/31 02:59:44;;;;;;;10.63;3.75;;;3.60;99.90;;;;;;5013630;28;20038;-76
2022/01/31 03:02:09;;;;;;;13.38;5.07;;;3.50;99.90;;;;;;5012665;28;20477;-77
2022/01/31 03:04:35;;;;;;;8.95;4.97;;;3.50;99.90;;;;;;5013117;28;20627;-76
2022/01/31 03:07:01;;;;;;;11.35;6.00;;;3.50;99.90;;;;;;5012658;28;20026;-76
2022/01/31 03:09:26;;;;;;;12.68;4.20;;;3.50;99.90;;;;;;5018197;28;20101;-76
2022/01/31 03:11:52;;;;;;;11.35;3.53;;;3.50;99.90;;;;;;5015500;28;20026;-76
2022/01/31 03:14:19;;;;;;;18.08;4.95;;;3.40;99.90;;;;;;5013501;28;20432;-77
2022/01/31 03:16:45;;;;;;;9.05;3.67;;;3.40;99.90;;;;;;5013474;28;20022;-76
2022/01/31 03:19:12;;;;;;;7.82;3.90;;;3.40;99.90;;;;;;5013293;28;20393;-76
2022/01/31 03:21:38;;;;;;;11.02;3.92;;;3.40;99.90;;;;;;5013285;28;20038;-76
2022/01/31 03:24:05;;;;;;;10.00;4.10;;;3.40;99.90;;;;;;5013653;28;20410;-76
2022/01/31 03:26:31;;;;;;;9.88;4.18;;;3.60;99.90;;;;;;5013322;28;20569;-76
2022/01/31 03:28:57;;;;;;;10.00;4.88;;;3.60;99.90;;;;;;5017573;28;20061;-76
2022/01/31 03:31:23;;;;;;;17.60;4.28;;;3.70;99.90;;;;;;5037192;28;20049;-76
2022/01/31 03:33:50;;;;;;;9.68;3.72;;;3.60;99.90;;;;;;5037666;28;20018;-75
2022/01/31 03:36:16;;;;;;;10.23;5.32;;;3.60;99.90;;;;;;5037918;28;20032;-76
2022/01/31 03:38:41;;;;;;;12.30;4.00;;;3.60;99.90;;;;;;5032257;28;20026;-77
2022/01/31 03:41:09;;;;;;;7.68;4.30;;;3.60;99.90;;;;;;5017697;28;20054;-76
2022/01/31 03:43:34;;;;;;;9.52;3.83;;;3.60;99.90;;;;;;5017876;28;20237;-76
2022/01/31 03:46:00;;;;;;;13.50;5.25;;;3.70;99.90;;;;;;5018622;28;20018;-76
2022/01/31 03:48:28;;;;;;;9.35;4.07;;;3.60;99.90;;;;;;5013904;28;20084;-77
2022/01/31 03:50:54;;;;;;;17.33;6.88;;;3.60;99.90;;;;;;5012434;28;20026;-77
2022/01/31 03:53:20;;;;;;;14.95;3.88;;;3.60;99.90;;;;;;5012025;28;20124;-76
2022/01/31 03:55:45;;;;;;;9.85;3.70;;;3.60;99.90;;;;;;5020681;28;20125;-76
2022/01/31 03:58:11;;;;;;;7.38;3.67;;;3.70;99.90;;;;;;5015056;28;20423;-76
2022/01/31 04:00:37;;;;;;;10.65;3.92;;;3.70;99.90;;;;;;5014481;28;20117;-76
2022/01/31 04:03:03;;;;;;;9.57;3.47;;;3.70;99.90;;;;;;5014125;28;20037;-77
2022/01/31 04:05:28;;;;;;;14.05;4.65;;;3.60;99.90;;;;;;5014145;28;20038;-76
2022/01/31 04:07:54;;;;;;;10.98;3.60;;;3.60;99.90;;;;;;5013348;28;20490;-77
2022/01/31 04:10:20;;;;;;;7.88;3.67;;;3.60;99.90;;;;;;5016329;28;20057;-77
2022/01/31 04:12:45;;;;;;;8.25;3.33;;;3.70;99.90;;;;;;5016867;28;20018;-76
2022/01/31 04:15:11;;;;;;;10.15;4.13;;;3.70;99.90;;;;;;5017018;28;20028;-76
2022/01/31 04:17:38;;;;;;;13.10;4.35;;;3.70;99.90;;;;;;5016928;28;20033;-77
2022/01/31 04:20:06;;;;;;;9.32;4.75;;;3.70;99.90;;;;;;5016986;28;20030;-77
2022/01/31 04:22:35;;;;;;;8.48;3.33;;;3.70;99.90;;;;;;5018999;28;20109;-76
2022/01/31 04:25:03;;;;;;;11.07;3.97;;;3.80;99.90;;;;;;5017402;28;20490;-76
2022/01/31 04:27:33;;;;;;;12.65;3.90;;;3.70;99.90;;;;;;5015339;28;20030;-76
2022/01/31 04:29:59;;;;;;;5.18;3.03;;;3.80;99.90;;;;;;5017637;28;20489;-77
2022/01/31 04:32:24;;;;;;;5.80;3.58;;;3.90;99.90;;;;;;5017343;28;20032;-76
2022/01/31 04:34:50;;;;;;;10.70;4.15;;;3.90;99.90;;;;;;5016735;28;20046;-77
2022/01/31 04:37:15;;;;;;;7.45;4.40;;;3.90;99.90;;;;;;5021763;28;20460;-76
2022/01/31 04:39:41;;;;;;;7.55;3.38;;;3.90;99.90;;;;;;5018201;28;20025;-77
2022/01/31 04:42:07;;;;;;;9.02;3.28;;;3.80;99.90;;;;;;5016422;28;20389;-76
2022/01/31 04:44:35;;;;;;;8.93;3.00;;;3.80;99.90;;;;;;5016682;28;20141;-76
2022/01/31 04:47:01;;;;;;;6.97;3.55;;;3.80;99.90;;;;;;5016267;28;20054;-77
2022/01/31 04:49:26;;;;;;;7.75;3.67;;;3.80;99.90;;;;;;5014583;28;20057;-76
2022/01/31 04:51:52;;;;;;;10.70;3.75;;;3.80;99.90;;;;;;5015985;28;20482;-76
2022/01/31 04:54:17;;;;;;;9.70;3.42;;;3.80;99.90;;;;;;5015903;28;20638;-77
2022/01/31 04:56:44;;;;;;;6.03;3.03;;;3.90;99.90;;;;;;5015731;28;20026;-76
2022/01/31 04:59:10;;;;;;;8.15;3.78;;;4.00;99.90;;;;;;5016069;28;20108;-76
2022/01/31 05:01:38;;;;;;;11.25;2.92;;;4.20;99.90;;;;;;5016024;28;20109;-76
2022/01/31 05:04:04;;;;;;;14.65;4.55;;;4.10;99.90;;;;;;5014514;28;20029;-78
2022/01/31 05:06:37;;;;;;;9.60;3.50;;;4.20;99.90;;;;;;5024115;28;20440;-77
2022/01/31 05:09:04;;;;;;;8.40;2.78;;;4.30;99.90;;;;;;5020160;28;20109;-78
2022/01/31 05:11:30;;;;;;;9.55;3.47;;;4.20;99.90;;;;;;5016145;28;20022;-77
2022/01/31 05:13:55;;;;;;;11.45;3.15;;;4.20;99.90;;;;;;5016608;28;20426;-77
2022/01/31 05:16:22;;;;;;;8.70;3.35;;;4.20;99.90;;;;;;5018085;28;20492;-76
2022/01/31 05:18:47;;;;;;;8.07;3.85;;;4.30;99.90;;;;;;5016126;28;20018;-77
2022/01/31 05:21:13;;;;;;;6.93;3.15;;;4.30;99.90;;;;;;5014543;28;20030;-76
2022/01/31 05:23:39;;;;;;;12.07;3.22;;;4.20;99.90;;;;;;5015762;28;20367;-77
2022/01/31 05:26:04;;;;;;;7.35;3.08;;;4.20;99.90;;;;;;5015486;28;20018;-77
2022/01/31 05:28:30;;;;;;;8.32;2.95;;;4.20;99.90;;;;;;5015873;28;20041;-77
2022/01/31 05:30:56;;;;;;;8.23;4.90;;;4.20;99.90;;;;;;5016607;28;20030;-76
2022/01/31 05:33:21;;;;;;;9.30;2.95;;;4.20;99.90;;;;;;5015417;28;20022;-77
2022/01/31 05:35:47;;;;;;;10.80;3.70;;;4.20;99.90;;;;;;5015791;28;20385;-76
2022/01/31 05:38:13;;;;;;;9.07;2.97;;;4.30;99.90;;;;;;5015428;28;20030;-76
2022/01/31 05:40:39;;;;;;;9.48;3.22;;;4.30;99.90;;;;;;5013690;28;20037;-76
2022/01/31 05:43:04;;;;;;;8.18;3.25;;;4.30;99.90;;;;;;5015024;28;20484;-76
2022/01/31 05:45:30;;;;;;;8.50;4.13;;;4.30;99.90;;;;;;5017881;28;20026;-76
2022/01/31 05:47:56;;;;;;;10.18;3.10;;;4.40;99.90;;;;;;5022137;28;20038;-76
2022/01/31 05:50:22;;;;;;;8.20;3.08;;;4.40;99.90;;;;;;5021222;28;20029;-77
2022/01/31 05:52:48;;;;;;;8.63;4.47;;;4.40;99.90;;;;;;5022436;28;20029;-76
2022/01/31 05:55:14;;;;;;;8.95;3.22;;;4.40;99.90;;;;;;5016787;28;20030;-77
2022/01/31 05:57:42;;;;;;;10.93;3.13;;;4.50;99.90;;;;;;5016335;28;20034;-78
2022/01/31 06:00:08;;;;;;;10.13;3.47;;;4.50;99.90;;;;;;5014364;28;20106;-77
2022/01/31 06:02:35;;;;;;;9.35;5.50;;;4.60;99.90;;;;;;5022359;28;20026;-77
2022/01/31 06:05:02;;;;;;;8.95;3.70;;;4.60;99.90;;;;;;5025978;28;20149;-77
2022/01/31 06:07:28;;;;;;;9.80;3.92;;;4.60;99.90;;;;;;5022616;28;20041;-77
2022/01/31 06:09:53;;;;;;;5.47;3.08;;;4.60;99.90;;;;;;5017810;28;20025;-78
2022/01/31 06:12:19;;;;;;;13.18;3.70;;;4.70;99.90;;;;;;5016605;28;20033;-77
2022/01/31 06:14:44;;;;;;;12.50;3.00;;;4.80;99.90;;;;;;5015497;28;20064;-76
2022/01/31 06:17:10;;;;;;;18.92;4.65;;;4.80;99.90;;;;;;5021308;28;20030;-77
2022/01/31 06:19:35;;;;;;;10.27;3.63;;;4.80;99.90;;;;;;5025310;28;20026;-77
2022/01/31 06:22:01;;;;;;;7.80;3.30;;;4.80;99.90;;;;;;5023281;28;20049;-76
2022/01/31 06:24:27;;;;;;;9.25;3.30;;;4.80;99.90;;;;;;5031823;28;20033;-75
2022/01/31 06:26:53;;;;;;;9.68;3.42;;;4.90;99.90;;;;;;5038252;28;20036;-76
2022/01/31 06:29:19;;;;;;;12.57;3.28;;;4.90;99.90;;;;;;5038381;28;20014;-76
2022/01/31 06:31:45;;;;;;;8.15;2.88;;;4.90;99.90;;;;;;5037566;28;20068;-77
2022/01/31 06:34:10;;;;;;;10.30;3.28;;;4.80;99.90;;;;;;5020448;28;20108;-78
2022/01/31 06:36:36;;;;;;;7.70;2.53;;;4.80;99.90;;;;;;5016467;28;20026;-77
2022/01/31 06:39:02;;;;;;;10.77;3.58;;;4.80;99.90;;;;;;5018326;28;20040;-77
2022/01/31 06:41:28;;;;;;;7.13;2.67;;;4.80;99.90;;;;;;5020904;28;20022;-76
2022/01/31 06:43:54;;;;;;;12.70;4.65;;;4.70;99.90;;;;;;5019778;28;20037;-76
2022/01/31 06:46:20;;;;;;;9.75;3.42;;;4.70;99.90;;;;;;5019721;28;20025;-77
2022/01/31 06:48:46;;;;;;;10.88;4.95;;;4.60;99.90;;;;;;5018609;28;20022;-77
2022/01/31 06:51:12;;;;;;;10.80;4.25;;;4.50;99.90;;;;;;5012664;28;20029;-77
2022/01/31 06:53:38;;;;;;;6.93;3.13;;;4.50;99.90;;;;;;5013911;28;20032;-77
2022/01/31 06:56:04;;;;;;;14.82;5.85;;;4.50;99.90;;;;;;5014308;28;20025;-77
2022/01/31 06:58:29;;;;;;;10.18;3.60;;;4.40;99.90;;;;;;5013783;28;20050;-77
2022/01/31 07:00:56;;;;;;;10.88;3.67;;;4.40;99.90;;;;;;5013539;28;20116;-77
2022/01/31 07:03:21;;;;;;;9.32;3.63;;;4.40;99.90;;;;;;5014190;28;20017;-77
2022/01/31 07:05:47;;;;;;;7.40;2.90;;;4.40;99.90;;;;;;5014378;28;20071;-77
2022/01/31 07:08:14;;;;;;;8.57;3.70;;;4.40;99.90;;;;;;5012514;28;20076;-77
2022/01/31 07:10:41;;;;;;;10.70;3.20;;;4.30;99.90;;;;;;5016113;28;20049;-76
2022/01/31 07:13:13;;;;;;;6.68;3.42;;;4.40;99.90;;;;;;5023099;28;20041;-77
2022/01/31 07:15:39;;;;;;;8.35;3.65;;;4.30;99.90;;;;;;5021192;28;20026;-77
2022/01/31 07:18:05;;;;;;;9.77;3.22;;;4.30;99.90;;;;;;5017557;28;20030;-78
2022/01/31 07:20:40;;;;;;;9.38;3.08;;;4.40;99.90;;;;;;5017019;28;20075;-76
2022/01/31 07:23:16;;;;;;;14.10;3.13;;;4.50;99.90;;;;;;5014446;28;20117;-78
2022/01/31 07:25:41;;;;;;;6.68;3.13;;;4.50;99.90;;;;;;5014780;28;20026;-78
2022/01/31 07:28:10;;;;;;;8.10;2.58;;;4.60;99.90;;;;;;5014750;28;20033;-78
2022/01/31 07:30:37;;;;;;;7.55;3.00;;;4.50;99.90;;;;;;5012833;28;20080;-76
2022/01/31 07:33:03;;;;;;;3.35;1.88;;;4.60;99.90;;;;;;5012903;28;20113;-78
2022/01/31 07:35:29;;;;;;;5.47;2.50;;;4.60;99.90;;;;;;5013116;28;20454;-76
2022/01/31 07:37:55;;;;;;;7.20;3.13;;;4.60;99.90;;;;;;5015041;28;20056;-76
2022/01/31 07:40:20;;;;;;;7.50;2.72;;;4.60;99.90;;;;;;5021207;28;20026;-76
2022/01/31 07:45:17;;;;;;;7.25;3.03;;;4.60;99.90;;;;;;5006621;28;20056;-83
2022/01/31 07:47:42;;;;;;;7.00;3.90;;;4.50;99.90;;;;;;5006392;28;20097;-82
2022/01/31 07:50:08;;;;;;;4.50;2.20;;;4.50;99.90;;;;;;5007899;28;20042;-81
2022/01/31 07:52:34;;;;;;;7.20;1.85;;;4.50;99.90;;;;;;5004682;28;20022;-83
2022/01/31 07:55:00;;;;;;;3.13;1.92;;;4.50;99.90;;;;;;5031673;28;20016;-81
2022/01/31 07:57:26;;;;;;;3.85;2.28;;;4.50;99.90;;;;;;5033663;28;20033;-83
2022/01/31 07:59:52;;;;;;;3.80;1.88;;;4.50;99.90;;;;;;5030960;28;20026;-82
2022/01/31 08:02:18;;;;;;;3.33;2.00;;;4.50;99.90;;;;;;5048602;28;20081;-82
2022/01/31 08:04:44;;;;;;;3.40;1.80;;;4.50;99.90;;;;;;5030718;28;20030;-83
2022/01/31 08:07:09;;;;;;;4.57;1.70;;;4.60;99.90;;;;;;5030284;28;20021;-83
2022/01/31 08:09:35;;;;;;;3.90;1.75;;;4.70;99.90;;;;;;5029417;28;20022;-81
2022/01/31 08:12:01;;;;;;;2.53;1.30;;;4.70;99.90;;;;;;5028136;28;20084;-82
2022/01/31 08:14:27;;;;;;;3.55;1.23;;;4.70;99.90;;;;;;5029052;28;20093;-83
2022/01/31 08:16:53;;;;;;;5.03;2.10;;;4.70;99.90;;;;;;5034777;28;20022;-81
2022/01/31 08:19:18;;;;;;;2.75;1.70;;;4.70;99.90;;;;;;5030199;28;20040;-80
2022/01/31 08:21:44;;;;;;;1.08;0.90;;;4.70;99.90;;;;;;5027371;28;20436;-82
2022/01/31 08:24:10;;;;;;;3.03;1.15;;;4.80;99.90;;;;;;5027798;28;20074;-82
2022/01/31 08:26:35;;;;;;;2.17;1.20;;;4.80;99.90;;;;;;5029512;28;20026;-82
2022/01/31 08:29:16;;;;;;;2.45;1.10;;;4.90;99.90;;;;;;5035323;28;20041;-83
2022/01/31 08:31:42;;;;;;;1.23;1.02;;;4.80;99.90;;;;;;5036882;28;20026;-83
2022/01/31 08:36:42;;;;;;;2.67;1.17;;;4.90;99.90;;;;;;5036888;28;20175;-83
2022/01/31 08:39:17;;;;;;;1.63;0.80;;;4.90;99.90;;;;;;5031114;28;20030;-84
2022/01/31 08:41:44;;;;;;;1.77;0.90;;;5.00;99.90;;;;;;5029845;28;20057;-84
2022/01/31 08:44:15;;;;;;;1.98;0.80;;;5.10;99.90;;;;;;5024325;28;20043;-76
2022/01/31 08:46:41;;;;;;;1.80;0.90;;;5.10;99.90;;;;;;5010725;28;20490;-76
2022/01/31 08:49:08;;;;;;;1.45;0.90;;;5.20;99.90;;;;;;5007466;28;20362;-75
2022/01/31 08:51:34;;;;;;;0.57;0.55;;;5.20;99.90;;;;;;5011585;28;20014;-76
2022/01/31 08:54:00;;;;;;;1.00;0.90;;;5.20;99.90;;;;;;5014400;28;20037;-79
2022/01/31 08:56:26;;;;;;;0.73;0.57;;;5.30;99.90;;;;;;5010315;28;20490;-78
2022/01/31 08:58:52;;;;;;;2.13;0.93;;;5.30;99.90;;;;;;5023448;28;20029;-79
2022/01/31 09:01:21;;;;;;;2.53;0.80;;;5.50;99.90;;;;;;5028490;28;20022;-80
2022/01/31 09:06:22;;;;;;;1.38;1.00;;;5.50;99.90;;;;;;5015204;28;20042;-77
2022/01/31 09:08:48;;;;;;;1.77;0.60;;;5.60;99.90;;;;;;5012259;28;20030;-78
2022/01/31 09:11:14;;;;;;;1.25;0.80;;;5.70;99.90;;;;;;5013338;28;20064;-79
2022/01/31 09:13:39;;;;;;;1.20;0.85;;;5.80;99.90;;;;;;5022707;28;20025;-78
2022/01/31 09:16:06;;;;;;;4.20;0.82;;;5.90;99.90;;;;;;5021873;28;20022;-78
2022/01/31 09:18:31;;;;;;;2.55;0.90;;;5.90;99.90;;;;;;5011822;28;20034;-78
2022/01/31 09:20:58;;;;;;;2.03;0.68;;;6.10;99.90;;;;;;5018587;28;20040;-77
2022/01/31 09:23:25;;;;;;;2.58;1.13;;;6.30;99.90;;;;;;5013506;28;20028;-78
2022/01/31 09:25:51;;;;;;;1.30;0.70;;;6.50;99.90;;;;;;5017540;28;20018;-78
2022/01/31 09:28:17;;;;;;;1.98;0.77;;;6.70;99.90;;;;;;5011349;28;20053;-77
2022/01/31 09:30:45;;;;;;;3.40;1.20;;;6.70;99.90;;;;;;5018467;28;20077;-78
2022/01/31 09:33:11;;;;;;;1.65;0.70;;;6.80;99.90;;;;;;5006093;28;20080;-78
2022/01/31 09:35:37;;;;;;;2.05;1.23;;;6.70;99.90;;;;;;5013666;28;20033;-77
2022/01/31 09:38:04;;;;;;;1.17;1.08;;;6.70;99.90;;;;;;5007021;28;20429;-78
2022/01/31 09:40:30;;;;;;;1.13;0.68;;;6.80;99.90;;;;;;5000469;28;20401;-77
2022/01/31 09:51:02;;;;;;;2.45;0.80;;;6.90;99.90;;;;;;5005512;28;20099;-77
2022/01/31 09:53:31;;;;;;;1.95;1.38;;;6.80;99.90;;;;;;5000017;28;20022;-77
2022/01/31 09:55:57;;;;;;;1.90;1.10;;;6.80;99.90;;;;;;5001077;28;20491;-79
2022/01/31 09:58:26;;;;;;;1.85;0.88;;;6.60;99.90;;;;;;5012661;28;20382;-78
2022/01/31 10:01:16;;;;;;;2.95;1.27;;;6.60;99.90;;;;;;5008399;28;20029;-78
2022/01/31 10:03:51;;;;;;;1.88;1.10;;;6.50;99.90;;;;;;4993243;28;20038;-78
2022/01/31 10:06:29;;;;;;;4.75;1.20;;;6.50;99.90;;;;;;5011026;28;20026;-78
2022/01/31 10:09:17;;;;;;;2.88;0.93;;;6.50;99.90;;;;;;5012268;28;20038;-78
2022/01/31 10:11:50;;;;;;;4.15;1.25;;;6.40;99.90;;;;;;5006954;28;20033;-78
2022/01/31 10:17:10;;;;;;;2.25;1.65;;;6.30;99.90;;;;;;5017517;28;20029;-78
2022/01/31 10:19:41;;;;;;;3.08;1.20;;;6.40;99.90;;;;;;5006719;28;20045;-79
2022/01/31 10:22:11;;;;;;;2.75;1.52;;;6.50;99.90;;;;;;5017768;28;20022;-78
2022/01/31 10:24:41;;;;;;;3.53;1.42;;;6.60;99.90;;;;;;5015466;28;20054;-78
2022/01/31 10:27:15;;;;;;;3.22;1.48;;;6.40;99.90;;;;;;5006430;28;20038;-78
2022/01/31 10:29:43;;;;;;;3.60;1.20;;;6.40;99.90;;;;;;5004040;28;20034;-78
2022/01/31 10:32:17;;;;;;;1.20;0.80;;;6.40;99.90;;;;;;5027306;28;20036;-80
2022/01/31 10:34:51;;;;;;;3.45;1.42;;;6.40;99.90;;;;;;5002827;28;20014;-78
2022/01/31 10:37:18;;;;;;;2.05;1.08;;;6.40;99.90;;;;;;5008311;28;20057;-79
2022/01/31 10:51:10;;;;;;;1.63;1.15;;;6.70;99.90;;;;;;5013734;28;20092;-79
2022/01/31 10:53:53;;;;;;;2.60;1.13;;;6.70;99.90;;;;;;5008215;28;20118;-79
2022/01/31 10:56:19;;;;;;;2.97;1.17;;;6.80;99.90;;;;;;5018860;28;20040;-78
2022/01/31 10:59:10;;;;;;;3.40;0.98;;;6.70;99.90;;;;;;5009663;28;20081;-79
2022/01/31 11:01:39;;;;;;;;;;;6.70;99.90;;;;;;5018441;28;20022;-77
2022/01/31 11:04:14;;;;;;;2.72;1.50;;;6.60;99.90;;;;;;5012343;28;19917;-79
2022/01/31 11:06:42;;;;;;;1.92;0.75;;;6.60;99.90;;;;;;5015836;28;20026;-78
2022/01/31 11:09:16;;;;;;;3.67;1.05;;;6.70;99.90;;;;;;5024921;28;20082;-79
2022/01/31 11:11:43;;;;;;;3.28;1.20;;;6.60;99.90;;;;;;5021517;28;20029;-78
2022/01/31 11:14:10;;;;;;;2.90;1.27;;;6.70;99.90;;;;;;5016214;28;20022;-78
2022/01/31 11:16:38;;;;;;;2.65;1.30;;;6.70;99.90;;;;;;5017379;28;20049;-78
2022/01/31 11:19:09;;;;;;;2.50;1.10;;;6.80;99.90;;;;;;5018448;28;20048;-79
2022/01/31 11:21:47;;;;;;;7.50;1.27;;;6.90;99.90;;;;;;5013072;28;20034;-79
2022/01/31 11:24:26;;;;;;;2.00;1.02;;;7.10;99.90;;;;;;5004370;28;20026;-81
2022/01/31 11:27:01;;;;;;;4.32;1.40;;;7.10;99.90;;;;;;5010579;28;20049;-78
2022/01/31 11:29:27;;;;;;;3.97;1.15;;;6.90;99.90;;;;;;5003348;28;20026;-78
2022/01/31 11:31:54;;;;;;;4.55;1.10;;;6.90;99.90;;;;;;5019968;28;20038;-81
2022/01/31 11:34:22;;;;;;;3.47;1.00;;;6.80;99.90;;;;;;5008095;28;20029;-78
2022/01/31 11:36:47;;;;;;;1.02;0.80;;;6.80;99.90;;;;;;5009610;28;20049;-79
2022/01/31 11:39:15;;;;;;;1.98;1.75;;;6.70;99.90;;;;;;5007872;28;20030;-79
2022/01/31 11:41:57;;;;;;;1.90;0.77;;;6.70;99.90;;;;;;5010780;28;20037;-79
2022/01/31 11:44:29;;;;;;;3.88;1.00;;;6.70;99.90;;;;;;5005002;28;20053;-79
2022/01/31 11:46:56;;;;;;;7.63;1.23;;;6.60;99.90;;;;;;5016588;28;20061;-78
2022/01/31 11:49:22;;;;;;;5.55;1.83;;;6.50;99.90;;;;;;5001900;28;20032;-80
2022/01/31 11:52:01;;;;;;;4.20;0.90;;;6.40;99.90;;;;;;5014457;28;20022;-78
2022/01/31 11:54:27;;;;;;;2.17;0.90;;;6.30;99.90;;;;;;5006794;28;20105;-78
2022/01/31 11:56:55;;;;;;;3.78;1.10;;;6.30;99.90;;;;;;5007240;28;20030;-79
2022/01/31 11:59:23;;;;;;;2.20;0.63;;;6.20;99.90;;;;;;5004414;28;20045;-79
2022/01/31 12:01:53;;;;;;;4.30;1.40;;;6.20;99.90;;;;;;5010916;28;20076;-80
2022/01/31 12:04:33;;;;;;;4.35;1.20;;;6.20;99.90;;;;;;5014321;28;20078;-79
2022/01/31 12:06:59;;;;;;;2.70;0.88;;;6.20;99.90;;;;;;5007946;28;20079;-79
2022/01/31 12:09:28;;;;;;;3.58;0.90;;;6.10;99.90;;;;;;4998894;28;20513;-78
2022/01/31 12:12:03;;;;;;;3.53;0.82;;;6.20;99.90;;;;;;5017099;28;20041;-79
2022/01/31 12:14:41;;;;;;;2.90;0.90;;;6.20;99.90;;;;;;5010891;28;20018;-79
2022/01/31 12:21:59;;;;;;;3.03;0.70;;;6.00;99.90;;;;;;5001443;28;20124;-79
2022/01/31 12:23:37;;;;;;;3.45;0.95;;;6.10;99.90;;;;;;5009928;28;20045;-79
2022/01/31 12:26:23;;;;;;;3.72;1.00;;;6.10;99.90;;;;;;5016264;28;20030;-79
2022/01/31 12:28:57;;;;;;;4.35;0.82;;;6.10;99.90;;;;;;5007318;28;20046;-79
2022/01/31 12:31:51;;;;;;;2.58;1.20;;;6.20;99.90;;;;;;5008164;28;20056;-79
2022/01/31 12:34:22;;;;;;;3.58;1.17;;;6.20;99.90;;;;;;5012466;28;20037;-78
2022/01/31 12:36:50;;;;;;;4.35;0.80;;;6.20;99.90;;;;;;5021855;28;20084;-79
2022/01/31 12:45:43;;;;;;;2.50;0.90;;;6.20;99.90;;;;;;4980207;28;20041;-80
2022/01/31 12:48:08;;;;;;;6.55;1.30;;;6.10;99.90;;;;;;5004358;28;20033;-79
2022/01/31 12:50:59;;;;;;;1.98;0.85;;;6.10;99.90;;;;;;5008642;28;20021;-78
2022/01/31 12:56:08;;;;;;;3.60;1.48;;;6.10;99.90;;;;;;5010583;28;20538;-77
2022/01/31 12:58:49;;;;;;;1.98;0.82;;;6.10;99.90;;;;;;5010435;28;20021;-77
2022/01/31 13:01:20;;;;;;;4.10;1.58;;;6.10;99.90;;;;;;5017632;28;20033;-77
2022/01/31 13:04:09;;;;;;;2.13;0.80;;;6.10;99.90;;;;;;5013747;28;20054;-78
2022/01/31 13:06:53;;;;;;;2.28;1.23;;;6.10;99.90;;;;;;5012350;28;20581;-78
2022/01/31 13:09:29;;;;;;;4.57;1.63;;;6.10;99.90;;;;;;5007775;28;20026;-78
2022/01/31 13:12:02;;;;;;;2.40;1.10;;;6.10;99.90;;;;;;5003597;28;20112;-78
2022/01/31 13:14:36;;;;;;;5.03;1.35;;;6.10;99.90;;;;;;5019212;28;20029;-80
2022/01/31 13:17:16;;;;;;;3.13;0.90;;;6.10;99.90;;;;;;5026861;28;20049;-79
2022/01/31 13:19:48;;;;;;;4.50;1.47;;;6.10;99.90;;;;;;5027043;28;20065;-79
2022/01/31 13:22:26;;;;;;;3.00;0.90;;;6.10;99.90;;;;;;5017478;28;20134;-80
2022/01/31 13:25:01;;;;;;;1.70;0.75;;;6.00;99.90;;;;;;5025150;28;20320;-78
2022/01/31 13:27:32;;;;;;;4.55;1.10;;;6.00;99.90;;;;;;5026499;28;20090;-78
2022/01/31 13:29:58;;;;;;;1.33;0.70;;;5.90;99.90;;;;;;5021113;28;20030;-79
2022/01/31 13:32:30;;;;;;;2.90;1.20;;;5.80;99.90;;;;;;5026598;28;20498;-78
2022/01/31 13:34:59;;;;;;;5.40;1.55;;;5.90;99.90;;;;;;5011678;28;20433;-80
2022/01/31 13:37:44;;;;;;;7.93;2.13;;;5.80;99.90;;;;;;5016272;28;20026;-79
2022/01/31 13:40:14;;;;;;;3.03;0.95;;;5.80;99.90;;;;;;5014406;28;20029;-79
2022/01/31 13:42:42;;;;;;;2.53;0.90;;;5.90;99.90;;;;;;5016673;28;20021;-79
2022/01/31 13:45:27;;;;;;;4.50;1.30;;;5.90;99.90;;;;;;5043099;23;20053;-73